Time;durP1;ratioP1;P1;durP2;ratioP2;P2;SDS_P1;SDS_P2;PMS_P1;PMS_P2;Temp;Humidity;BMP_temperature;BMP_pressure;BME280_temperature;BME280_humidity;BME280_pressure;Samples;Min_cycle;Max_cycle;Signal;HPM_P1;HPM_P2
2022/08/27 00:01:16;;;;;;;5.88;2.38;;;17.60;99.90;;;;;;5032481;28;20400;-68
2022/08/27 00:03:43;;;;;;;4.35;2.20;;;17.60;99.90;;;;;;5033372;28;20041;-68
2022/08/27 00:06:13;;;;;;;7.93;2.22;;;17.60;99.90;;;;;;5031455;28;20046;-68
2022/08/27 00:08:40;;;;;;;5.18;2.20;;;17.60;99.90;;;;;;5029834;28;20030;-69
2022/08/27 00:11:05;;;;;;;6.18;2.08;;;17.60;99.90;;;;;;5032359;28;20041;-68
2022/08/27 00:13:31;;;;;;;6.20;2.50;;;17.60;99.90;;;;;;5027916;28;20033;-68
2022/08/27 00:15:57;;;;;;;7.05;2.28;;;17.60;99.90;;;;;;5031281;28;20049;-68
2022/08/27 00:18:23;;;;;;;7.15;2.05;;;17.90;99.90;;;;;;5031307;28;20042;-68
2022/08/27 00:20:49;;;;;;;6.53;2.20;;;17.60;99.90;;;;;;5031744;28;20504;-68
2022/08/27 00:23:15;;;;;;;7.78;2.50;;;17.60;99.90;;;;;;5031094;28;20044;-68
2022/08/27 00:25:41;;;;;;;5.15;2.13;;;17.60;99.90;;;;;;5031986;28;20050;-68
2022/08/27 00:28:06;;;;;;;4.75;2.20;;;17.60;99.90;;;;;;5032029;28;20072;-68
2022/08/27 00:30:32;;;;;;;5.07;2.28;;;17.60;99.90;;;;;;5031758;28;20478;-68
2022/08/27 00:32:58;;;;;;;5.85;2.28;;;17.60;99.90;;;;;;5031501;28;20046;-68
2022/08/27 00:35:24;;;;;;;6.85;2.28;;;17.60;99.90;;;;;;5031154;28;20041;-68
2022/08/27 00:37:49;;;;;;;6.30;2.35;;;17.70;99.90;;;;;;5031721;28;20037;-68
2022/08/27 00:40:19;;;;;;;7.15;2.30;;;17.60;99.90;;;;;;5030631;28;20042;-68
2022/08/27 00:42:45;;;;;;;10.40;2.90;;;17.60;99.90;;;;;;5032076;28;20394;-68
2022/08/27 00:45:14;;;;;;;7.40;2.40;;;17.50;99.90;;;;;;5033398;28;20049;-68
2022/08/27 00:47:45;;;;;;;8.02;2.67;;;17.50;99.90;;;;;;5033105;28;20040;-69
2022/08/27 00:50:15;;;;;;;7.90;2.75;;;17.50;99.90;;;;;;5032226;28;20494;-68
2022/08/27 00:52:45;;;;;;;12.75;2.97;;;17.40;99.90;;;;;;5031745;28;20050;-68
2022/08/27 00:55:17;;;;;;;7.32;2.70;;;17.40;99.90;;;;;;5027336;28;20034;-68
2022/08/27 00:57:44;;;;;;;8.20;2.80;;;17.70;99.90;;;;;;5030113;28;20056;-68
2022/08/27 01:00:13;;;;;;;6.95;2.50;;;17.30;99.90;;;;;;5031139;28;20056;-68
2022/08/27 01:02:40;;;;;;;9.23;3.00;;;17.30;99.90;;;;;;5030727;28;20053;-68
2022/08/27 01:05:20;;;;;;;8.95;2.65;;;17.30;99.90;;;;;;5030365;28;20147;-68
2022/08/27 01:07:48;;;;;;;5.47;2.40;;;17.20;99.90;;;;;;5035179;28;20041;-68
2022/08/27 01:10:17;;;;;;;7.38;2.50;;;17.20;99.90;;;;;;5034861;28;22528;-68
2022/08/27 01:12:43;;;;;;;11.15;2.50;;;17.30;99.90;;;;;;5035051;28;20505;-69
2022/08/27 01:15:13;;;;;;;6.80;2.75;;;17.20;99.90;;;;;;5035383;28;20036;-68
2022/08/27 01:17:41;;;;;;;6.00;2.40;;;17.60;99.90;;;;;;5033300;28;20500;-68
2022/08/27 01:20:14;;;;;;;7.00;2.97;;;17.20;99.90;;;;;;5033529;28;20029;-68
2022/08/27 01:22:39;;;;;;;7.65;2.70;;;17.40;99.90;;;;;;5034503;28;20041;-69
2022/08/27 01:25:11;;;;;;;7.05;2.60;;;17.20;99.90;;;;;;5035159;28;20068;-68
2022/08/27 01:27:39;;;;;;;8.82;2.88;;;17.20;99.90;;;;;;5034006;28;20053;-68
2022/08/27 01:30:06;;;;;;;9.13;2.55;;;17.20;99.90;;;;;;5035850;28;20091;-68
2022/08/27 01:32:34;;;;;;;8.85;2.63;;;17.20;99.90;;;;;;5035137;28;20132;-68
2022/08/27 01:35:03;;;;;;;9.77;2.50;;;17.20;99.90;;;;;;5035557;28;20457;-68
2022/08/27 01:37:29;;;;;;;8.45;2.80;;;17.20;99.90;;;;;;5034977;28;20524;-68
2022/08/27 01:39:57;;;;;;;4.78;2.40;;;17.20;99.90;;;;;;5034488;28;20482;-68
2022/08/27 01:42:35;;;;;;;7.82;2.70;;;17.20;99.90;;;;;;5034067;28;20128;-68
2022/08/27 01:45:06;;;;;;;7.60;2.63;;;17.10;99.90;;;;;;5034139;28;20037;-68
2022/08/27 01:47:33;;;;;;;7.85;2.78;;;17.10;99.90;;;;;;5034111;28;20124;-68
2022/08/27 01:49:59;;;;;;;6.20;2.50;;;17.10;99.90;;;;;;5034969;28;20111;-68
2022/08/27 01:52:26;;;;;;;5.25;2.38;;;17.10;99.90;;;;;;5034306;28;20041;-69
2022/08/27 01:54:52;;;;;;;9.00;2.40;;;17.30;99.90;;;;;;5033304;28;20046;-69
2022/08/27 01:57:19;;;;;;;9.43;2.75;;;17.00;99.90;;;;;;5034937;28;20112;-68
2022/08/27 01:59:44;;;;;;;6.35;2.40;;;17.00;99.90;;;;;;5034887;28;20056;-68
2022/08/27 02:02:12;;;;;;;4.72;2.30;;;17.00;99.90;;;;;;5034525;28;20439;-68
2022/08/27 02:04:38;;;;;;;8.73;2.38;;;17.00;99.90;;;;;;5034033;28;20048;-68
2022/08/27 02:07:04;;;;;;;6.80;2.33;;;16.90;99.90;;;;;;5036539;28;20037;-68
2022/08/27 02:09:30;;;;;;;8.63;2.30;;;16.90;99.90;;;;;;5032339;28;20160;-68
2022/08/27 02:11:56;;;;;;;4.93;2.30;;;16.80;99.90;;;;;;5033902;28;20056;-67
2022/08/27 02:14:22;;;;;;;7.55;2.40;;;16.90;99.90;;;;;;5029898;28;20045;-68
2022/08/27 02:16:48;;;;;;;5.05;2.30;;;16.80;99.90;;;;;;5018124;28;20033;-68
2022/08/27 02:19:13;;;;;;;8.77;2.45;;;16.80;99.90;;;;;;5032658;28;20041;-68
2022/08/27 02:21:39;;;;;;;4.07;2.20;;;16.80;99.90;;;;;;5033019;28;20387;-68
2022/08/27 02:24:05;;;;;;;5.53;2.35;;;17.00;99.90;;;;;;5033351;28;20042;-68
2022/08/27 02:26:31;;;;;;;5.38;2.28;;;16.80;99.90;;;;;;5033357;28;20080;-68
2022/08/27 02:28:56;;;;;;;6.93;2.13;;;17.00;99.90;;;;;;5032585;28;20107;-68
2022/08/27 02:31:22;;;;;;;6.65;2.30;;;16.70;99.90;;;;;;5032715;28;20501;-68
2022/08/27 02:33:48;;;;;;;6.15;2.20;;;16.70;99.90;;;;;;5033940;28;20120;-67
2022/08/27 02:36:17;;;;;;;6.97;2.50;;;16.60;99.90;;;;;;5033753;28;20117;-68
2022/08/27 02:38:43;;;;;;;6.30;2.30;;;16.70;99.90;;;;;;5034066;28;20076;-68
2022/08/27 02:41:08;;;;;;;4.63;2.20;;;16.60;99.90;;;;;;5034109;28;20492;-68
2022/08/27 02:43:34;;;;;;;6.28;2.15;;;16.60;99.90;;;;;;5033067;28;20033;-68
2022/08/27 02:46:01;;;;;;;6.60;2.20;;;16.60;99.90;;;;;;5033754;28;20116;-68
2022/08/27 02:48:26;;;;;;;5.03;2.20;;;16.70;99.90;;;;;;5038194;28;20094;-68
2022/08/27 02:50:53;;;;;;;6.13;2.38;;;16.60;99.90;;;;;;5034139;28;20065;-67
2022/08/27 02:53:20;;;;;;;4.55;2.15;;;16.50;99.90;;;;;;5033697;28;20052;-68
2022/08/27 02:55:47;;;;;;;9.32;2.20;;;16.50;99.90;;;;;;5033474;28;20067;-68
2022/08/27 02:58:15;;;;;;;5.03;2.30;;;16.50;99.90;;;;;;5032248;28;20033;-68
2022/08/27 03:00:42;;;;;;;8.32;2.40;;;16.50;99.90;;;;;;5032866;28;20122;-68
2022/08/27 03:03:09;;;;;;;7.85;2.47;;;16.40;99.90;;;;;;5031281;28;20176;-68
2022/08/27 03:05:35;;;;;;;5.38;2.20;;;16.40;99.90;;;;;;5033348;28;20048;-68
2022/08/27 03:08:02;;;;;;;7.10;2.20;;;16.50;99.90;;;;;;5033259;28;20073;-67
2022/08/27 03:10:28;;;;;;;8.18;2.42;;;16.40;99.90;;;;;;5035869;28;20049;-67
2022/08/27 03:12:54;;;;;;;8.05;2.10;;;16.40;99.90;;;;;;5031356;28;20050;-67
2022/08/27 03:15:20;;;;;;;8.30;2.63;;;16.40;99.90;;;;;;5031268;28;20459;-67
2022/08/27 03:20:32;;;;;;;6.72;2.08;;;16.30;99.90;;;;;;5029717;28;20045;-68
2022/08/27 03:22:59;;;;;;;6.18;2.42;;;16.30;99.90;;;;;;5032273;28;20056;-68
2022/08/27 03:25:25;;;;;;;6.97;2.10;;;16.30;99.90;;;;;;5032387;28;20045;-68
2022/08/27 03:27:50;;;;;;;6.22;2.17;;;16.30;99.90;;;;;;5031913;28;20504;-68
2022/08/27 03:30:19;;;;;;;5.57;2.30;;;16.30;99.90;;;;;;5032306;28;20033;-68
2022/08/27 03:32:45;;;;;;;5.32;2.22;;;16.50;99.90;;;;;;5033220;28;20045;-68
2022/08/27 03:35:12;;;;;;;6.22;2.10;;;16.30;99.90;;;;;;5031124;28;20520;-68
2022/08/27 03:37:38;;;;;;;7.50;2.83;;;16.30;99.90;;;;;;5032189;28;20043;-68
2022/08/27 03:40:05;;;;;;;6.00;2.05;;;16.30;99.90;;;;;;5032006;28;20663;-68
2022/08/27 03:42:31;;;;;;;9.93;2.47;;;16.30;99.90;;;;;;5031032;28;20397;-67
2022/08/27 03:44:57;;;;;;;9.05;2.10;;;16.30;99.90;;;;;;5033017;28;20045;-68
2022/08/27 03:47:22;;;;;;;5.13;2.15;;;16.30;99.90;;;;;;5032907;28;20121;-68
2022/08/27 03:49:48;;;;;;;11.35;2.03;;;16.30;99.90;;;;;;5032879;28;20425;-68
2022/08/27 03:52:15;;;;;;;5.20;2.05;;;16.90;99.90;;;;;;5032704;28;20438;-68
2022/08/27 03:54:42;;;;;;;6.32;2.00;;;16.30;99.90;;;;;;5032453;28;20041;-68
2022/08/27 03:57:08;;;;;;;5.93;2.03;;;16.40;99.90;;;;;;5032729;28;20351;-68
2022/08/27 03:59:34;;;;;;;5.90;1.92;;;16.30;99.90;;;;;;5032910;28;20136;-68
2022/08/27 04:02:01;;;;;;;5.20;2.05;;;16.80;99.90;;;;;;5032430;28;20045;-67
2022/08/27 04:04:27;;;;;;;8.02;2.00;;;16.20;99.90;;;;;;5032533;28;20045;-68
2022/08/27 04:06:53;;;;;;;4.35;2.00;;;16.40;99.90;;;;;;5034610;28;20417;-68
2022/08/27 04:09:19;;;;;;;4.38;1.95;;;16.20;99.90;;;;;;5031761;28;20052;-68
2022/08/27 04:11:44;;;;;;;5.55;2.10;;;16.20;99.90;;;;;;5014393;28;20046;-68
2022/08/27 04:14:11;;;;;;;8.60;2.10;;;16.10;99.90;;;;;;5030714;28;20073;-67
2022/08/27 04:16:40;;;;;;;10.65;2.33;;;16.20;99.90;;;;;;5032271;28;20128;-68
2022/08/27 04:19:06;;;;;;;5.60;1.98;;;16.20;99.90;;;;;;5036167;28;20120;-68
2022/08/27 04:21:34;;;;;;;8.15;2.38;;;16.20;99.90;;;;;;5052026;28;20054;-68
2022/08/27 04:24:01;;;;;;;7.38;1.90;;;16.60;99.90;;;;;;5032807;28;20087;-68
2022/08/27 04:26:28;;;;;;;7.97;2.10;;;16.10;99.90;;;;;;5032613;28;20092;-68
2022/08/27 04:28:55;;;;;;;5.28;2.33;;;16.10;99.90;;;;;;5031388;28;20041;-69
2022/08/27 04:31:21;;;;;;;5.38;1.90;;;16.10;99.90;;;;;;5031048;28;20128;-68
2022/08/27 04:33:47;;;;;;;7.82;2.13;;;16.20;99.90;;;;;;5041758;28;20072;-69
2022/08/27 04:36:13;;;;;;;6.88;1.98;;;16.10;99.90;;;;;;5052482;28;20041;-68
2022/08/27 04:38:39;;;;;;;7.18;1.92;;;16.10;99.90;;;;;;5030545;28;20033;-68
2022/08/27 04:41:18;;;;;;;6.38;2.33;;;16.00;99.90;;;;;;5032957;28;20508;-68
2022/08/27 04:43:45;;;;;;;7.10;1.98;;;16.00;99.90;;;;;;5036864;28;20039;-68
2022/08/27 04:46:11;;;;;;;7.07;2.08;;;15.90;99.90;;;;;;5035965;28;20436;-69
2022/08/27 04:48:37;;;;;;;5.00;1.85;;;16.10;99.90;;;;;;5043607;28;20901;-68
2022/08/27 04:51:03;;;;;;;7.03;2.13;;;16.00;99.90;;;;;;5036137;28;20404;-69
2022/08/27 04:53:29;;;;;;;4.53;2.00;;;16.00;99.90;;;;;;5035831;28;20049;-68
2022/08/27 04:55:56;;;;;;;5.90;2.42;;;16.00;99.90;;;;;;5034626;28;20037;-68
2022/08/27 04:58:23;;;;;;;6.88;2.28;;;16.10;99.90;;;;;;5035880;28;20045;-68
2022/08/27 05:00:52;;;;;;;5.63;2.15;;;16.10;99.90;;;;;;5036031;28;20045;-68
2022/08/27 05:03:22;;;;;;;7.05;2.13;;;16.10;99.90;;;;;;5035780;28;20037;-68
2022/08/27 05:05:48;;;;;;;5.03;2.20;;;16.20;99.90;;;;;;5034842;28;20045;-68
2022/08/27 05:08:14;;;;;;;8.85;2.10;;;16.50;99.90;;;;;;5034475;28;20146;-68
2022/08/27 05:10:41;;;;;;;4.95;1.95;;;16.20;99.90;;;;;;5034725;28;20510;-68
2022/08/27 05:13:07;;;;;;;6.30;2.20;;;16.30;99.90;;;;;;5034528;28;20045;-68
2022/08/27 05:15:34;;;;;;;5.55;2.17;;;16.30;99.90;;;;;;5031580;28;20037;-68
2022/08/27 05:18:00;;;;;;;6.38;2.03;;;16.30;99.90;;;;;;5034274;28;20037;-68
2022/08/27 05:20:26;;;;;;;8.13;2.13;;;16.30;99.90;;;;;;5034257;28;20042;-68
2022/08/27 05:22:52;;;;;;;8.00;2.28;;;16.40;99.90;;;;;;5033869;28;20053;-68
2022/08/27 05:25:18;;;;;;;4.18;2.28;;;16.40;99.90;;;;;;5035555;28;20053;-69
2022/08/27 05:27:44;;;;;;;7.05;2.30;;;16.70;99.90;;;;;;5033435;28;20052;-69
2022/08/27 05:30:11;;;;;;;7.63;2.28;;;16.50;99.90;;;;;;5028219;28;20046;-68
2022/08/27 05:32:36;;;;;;;5.63;2.08;;;16.50;99.90;;;;;;5034861;28;20045;-68
2022/08/27 05:35:02;;;;;;;7.05;2.15;;;16.60;99.90;;;;;;5035342;28;20099;-68
2022/08/27 05:37:28;;;;;;;8.95;2.17;;;16.60;99.90;;;;;;5035249;28;20084;-68
2022/08/27 05:39:53;;;;;;;6.38;2.33;;;17.00;99.90;;;;;;5033768;28;20129;-68
2022/08/27 05:42:19;;;;;;;10.88;2.55;;;16.70;99.90;;;;;;5033780;28;20440;-68
2022/08/27 05:44:45;;;;;;;11.57;2.20;;;16.80;99.90;;;;;;5032371;28;20048;-68
2022/08/27 05:47:10;;;;;;;9.68;2.50;;;16.80;99.90;;;;;;5033541;28;20045;-68
2022/08/27 05:49:36;;;;;;;5.93;2.15;;;16.90;99.90;;;;;;5034537;28;20370;-68
2022/08/27 05:52:06;;;;;;;7.38;2.20;;;17.00;99.90;;;;;;5038832;28;20418;-69
2022/08/27 05:54:32;;;;;;;12.43;2.50;;;17.10;99.90;;;;;;5038172;28;20060;-68
2022/08/27 05:56:58;;;;;;;7.35;2.10;;;17.20;99.90;;;;;;5034688;28;20243;-69
2022/08/27 06:02:07;;;;;;;7.15;2.20;;;17.30;99.90;;;;;;5032496;28;20076;-68
2022/08/27 06:04:33;;;;;;;6.28;2.20;;;17.30;99.90;;;;;;5036651;28;20498;-68
2022/08/27 06:06:59;;;;;;;8.63;2.17;;;17.30;99.90;;;;;;5032921;28;20136;-68
2022/08/27 06:09:28;;;;;;;6.60;1.90;;;17.40;99.90;;;;;;5031986;28;20041;-68
2022/08/27 06:11:55;;;;;;;5.43;2.10;;;17.40;99.90;;;;;;5033772;28;20045;-68
2022/08/27 06:14:21;;;;;;;6.38;2.20;;;17.40;99.90;;;;;;5047749;28;20497;-68
2022/08/27 06:16:47;;;;;;;7.35;2.28;;;17.40;99.90;;;;;;5034274;28;20077;-68
2022/08/27 06:19:13;;;;;;;6.28;1.90;;;17.50;99.90;;;;;;5033786;28;20033;-68
2022/08/27 06:21:40;;;;;;;10.52;2.33;;;17.50;99.90;;;;;;5035962;28;20044;-69
2022/08/27 06:24:07;;;;;;;5.32;2.10;;;17.50;99.90;;;;;;5037051;28;20045;-68
2022/08/27 06:26:33;;;;;;;7.60;2.35;;;17.60;99.90;;;;;;5033557;28;20037;-68
2022/08/27 06:29:05;;;;;;;7.60;2.38;;;17.60;99.90;;;;;;5033663;28;20052;-68
2022/08/27 06:31:30;;;;;;;6.25;2.20;;;17.70;99.90;;;;;;5033274;28;20457;-68
2022/08/27 06:34:02;;;;;;;7.28;2.20;;;17.70;99.90;;;;;;5032769;28;20091;-68
2022/08/27 06:36:29;;;;;;;8.52;2.20;;;17.90;99.90;;;;;;5032919;28;20064;-68
2022/08/27 06:38:56;;;;;;;5.97;1.80;;;17.90;99.90;;;;;;5032817;28;20049;-68
2022/08/27 06:41:25;;;;;;;7.78;1.85;;;17.90;99.90;;;;;;5033427;28;20179;-68
2022/08/27 06:43:52;;;;;;;7.97;2.10;;;18.10;99.90;;;;;;5034564;28;20041;-68
2022/08/27 06:46:24;;;;;;;8.18;2.10;;;18.10;99.90;;;;;;5033305;28;20092;-68
2022/08/27 06:48:55;;;;;;;8.60;2.40;;;18.10;99.90;;;;;;5032792;28;20060;-68
2022/08/27 06:51:25;;;;;;;9.85;2.03;;;18.30;99.90;;;;;;5020468;28;20049;-69
2022/08/27 06:53:52;;;;;;;11.43;2.53;;;18.40;99.90;;;;;;5030810;28;20041;-68
2022/08/27 06:56:18;;;;;;;13.05;2.03;;;18.50;99.90;;;;;;5033545;28;20050;-68
2022/08/27 06:58:45;;;;;;;6.68;2.20;;;18.60;99.90;;;;;;5033528;28;20045;-69
2022/08/27 07:01:19;;;;;;;8.55;2.20;;;18.80;99.90;;;;;;5033616;28;20041;-68
2022/08/27 07:03:45;;;;;;;6.70;1.90;;;18.70;99.90;;;;;;5032463;28;20052;-68
2022/08/27 07:06:13;;;;;;;8.02;1.77;;;18.80;99.90;;;;;;5033661;28;20521;-68
2022/08/27 07:08:41;;;;;;;11.82;2.53;;;18.90;99.90;;;;;;5032599;28;20045;-68
2022/08/27 07:11:12;;;;;;;7.45;1.80;;;19.10;99.90;;;;;;5033473;28;20042;-68
2022/08/27 07:13:38;;;;;;;9.70;2.30;;;19.30;99.90;;;;;;5032472;28;20374;-69
2022/08/27 07:16:06;;;;;;;6.63;2.33;;;19.50;99.90;;;;;;5033189;28;20034;-69
2022/08/27 07:18:32;;;;;;;9.50;2.08;;;19.70;99.90;;;;;;5033021;28;20504;-69
2022/08/27 07:20:58;;;;;;;6.28;1.85;;;19.80;99.90;;;;;;5032813;28;20045;-69
2022/08/27 07:23:24;;;;;;;7.53;1.80;;;20.30;99.90;;;;;;5009863;28;20056;-70
2022/08/27 07:25:49;;;;;;;7.18;1.92;;;19.90;99.90;;;;;;5033691;28;20397;-69
2022/08/27 07:28:15;;;;;;;7.38;1.73;;;20.00;99.90;;;;;;5033344;28;20109;-69
2022/08/27 07:30:41;;;;;;;11.05;2.42;;;19.90;99.90;;;;;;5032429;28;20046;-70
2022/08/27 07:33:07;;;;;;;8.23;2.03;;;19.80;99.90;;;;;;5031320;28;20068;-69
2022/08/27 07:40:51;;;;;;;12.10;2.30;;;19.80;99.90;;;;;;5004967;22;20053;-70
2022/08/27 07:46:04;;;;;;;13.57;2.30;;;19.80;99.90;;;;;;5042892;28;20049;-69
2022/08/27 07:48:32;;;;;;;7.93;2.00;;;19.80;99.90;;;;;;5047914;28;20448;-69
2022/08/27 07:50:58;;;;;;;6.97;1.90;;;19.80;99.90;;;;;;5017606;28;20523;-68
2022/08/27 07:53:24;;;;;;;7.75;1.98;;;19.80;99.90;;;;;;5027261;28;20510;-69
2022/08/27 07:55:50;;;;;;;8.98;2.10;;;19.80;99.90;;;;;;5027485;28;20045;-69
2022/08/27 07:58:16;;;;;;;11.98;2.25;;;19.80;99.90;;;;;;5033280;28;20041;-70
2022/08/27 08:00:43;;;;;;;11.10;1.80;;;19.80;99.90;;;;;;5044728;28;20051;-71
2022/08/27 08:03:10;;;;;;;10.25;2.38;;;19.80;99.90;;;;;;5047552;28;20056;-70
2022/08/27 08:05:40;;;;;;;9.27;2.00;;;19.90;99.90;;;;;;5047246;28;20083;-70
2022/08/27 08:08:07;;;;;;;6.72;1.85;;;19.90;99.90;;;;;;5047851;28;20506;-70
2022/08/27 08:10:35;;;;;;;5.57;1.75;;;20.00;99.90;;;;;;5016879;28;20047;-70
2022/08/27 08:13:01;;;;;;;7.90;1.90;;;20.30;99.90;;;;;;5037380;28;20044;-70
2022/08/27 08:15:28;;;;;;;9.77;1.98;;;20.00;99.90;;;;;;5047185;28;20041;-70
2022/08/27 08:17:54;;;;;;;7.43;1.90;;;20.10;99.90;;;;;;5029628;28;20531;-70
2022/08/27 08:20:20;;;;;;;8.40;1.90;;;20.00;99.90;;;;;;5051564;28;20407;-69
2022/08/27 08:22:46;;;;;;;7.22;2.00;;;20.10;99.90;;;;;;5045570;28;20119;-69
2022/08/27 08:25:12;;;;;;;7.88;1.90;;;20.10;99.90;;;;;;5047498;28;20123;-68
2022/08/27 08:27:39;;;;;;;10.68;1.90;;;20.20;99.90;;;;;;5046907;28;20041;-69
2022/08/27 08:30:05;;;;;;;8.27;1.70;;;20.30;99.90;;;;;;5047454;28;20157;-68
2022/08/27 08:32:31;;;;;;;7.55;1.50;;;20.30;99.90;;;;;;5046052;28;20135;-69
2022/08/27 08:34:58;;;;;;;6.18;1.90;;;20.30;99.90;;;;;;5047181;28;20037;-69
2022/08/27 08:37:25;;;;;;;7.72;1.77;;;20.30;99.90;;;;;;5027990;28;20350;-69
2022/08/27 08:39:50;;;;;;;6.75;1.60;;;20.50;99.90;;;;;;5041580;28;20055;-68
2022/08/27 08:42:34;;;;;;;8.00;1.60;;;20.40;99.90;;;;;;5084433;28;20052;-68
2022/08/27 08:45:01;;;;;;;9.13;2.08;;;20.50;99.90;;;;;;5067416;28;20059;-68
2022/08/27 08:47:42;;;;;;;8.65;2.38;;;20.50;99.90;;;;;;5067616;28;20060;-68
2022/08/27 08:50:15;;;;;;;8.10;2.35;;;20.60;99.90;;;;;;5067788;28;20102;-68
2022/08/27 08:53:12;;;;;;;12.13;2.22;;;20.70;99.90;;;;;;5082384;28;20119;-68
2022/08/27 08:55:47;;;;;;;8.48;1.80;;;20.90;99.90;;;;;;5067758;28;20037;-68
2022/08/27 08:58:28;;;;;;;6.53;2.00;;;21.00;99.90;;;;;;5063508;28;20143;-68
2022/08/27 09:00:57;;;;;;;10.13;1.83;;;21.10;99.90;;;;;;5044069;28;20493;-68
2022/08/27 09:03:24;;;;;;;8.82;1.85;;;21.20;99.90;;;;;;5066737;28;20040;-69
2022/08/27 09:06:04;;;;;;;6.13;1.98;;;21.20;99.90;;;;;;5058077;28;20396;-69
2022/08/27 09:08:39;;;;;;;8.50;2.13;;;21.20;99.90;;;;;;5067136;28;20041;-69
2022/08/27 09:11:25;;;;;;;8.68;1.80;;;21.30;99.90;;;;;;5028316;28;20053;-68
2022/08/27 09:14:34;;;;;;;7.47;1.63;;;21.30;99.90;;;;;;5042452;28;20346;-68
2022/08/27 09:17:01;;;;;;;4.78;1.55;;;21.40;99.90;;;;;;5042335;28;20105;-68
2022/08/27 09:19:27;;;;;;;9.18;2.15;;;21.40;99.90;;;;;;5045930;28;20128;-68
2022/08/27 09:22:27;;;;;;;8.90;1.83;;;21.30;99.90;;;;;;5046511;28;20120;-68
2022/08/27 09:25:19;;;;;;;10.88;2.15;;;21.30;99.90;;;;;;5041947;28;20052;-69
2022/08/27 09:27:46;;;;;;;8.63;1.80;;;21.20;99.90;;;;;;5027784;28;20377;-69
2022/08/27 09:30:26;;;;;;;12.52;2.15;;;21.30;99.90;;;;;;5050430;28;20628;-69
2022/08/27 09:32:59;;;;;;;6.75;1.73;;;21.40;99.90;;;;;;5065003;28;20049;-69
2022/08/27 09:35:27;;;;;;;6.78;1.70;;;21.40;99.90;;;;;;5049603;28;20370;-70
2022/08/27 09:37:54;;;;;;;6.75;1.80;;;21.40;99.90;;;;;;5027411;28;20075;-70
2022/08/27 09:40:30;;;;;;;9.73;2.20;;;21.30;99.90;;;;;;5046442;28;20037;-70
2022/08/27 09:43:17;;;;;;;11.82;2.00;;;21.30;99.90;;;;;;5047399;28;20064;-70
2022/08/27 09:45:52;;;;;;;5.80;1.42;;;21.20;99.90;;;;;;5050151;28;20456;-70
2022/08/27 09:48:20;;;;;;;12.00;2.38;;;21.20;99.90;;;;;;5039334;28;20064;-70
2022/08/27 09:50:56;;;;;;;9.10;2.00;;;21.10;99.90;;;;;;5050147;28;20130;-70
2022/08/27 09:53:35;;;;;;;8.45;2.08;;;21.00;99.90;;;;;;5069995;28;20064;-70
2022/08/27 09:56:05;;;;;;;7.00;1.70;;;21.00;99.90;;;;;;5066902;28;20056;-70
2022/08/27 09:58:44;;;;;;;12.27;1.90;;;21.00;99.90;;;;;;5070016;28;20056;-70
2022/08/27 10:01:23;;;;;;;5.57;1.60;;;21.00;99.90;;;;;;5067053;28;20105;-70
2022/08/27 10:03:49;;;;;;;6.18;1.60;;;20.90;99.90;;;;;;5052292;28;20054;-69
2022/08/27 10:06:27;;;;;;;7.55;1.80;;;20.80;99.90;;;;;;5069642;28;20063;-70
2022/08/27 10:08:56;;;;;;;7.05;1.95;;;20.90;99.90;;;;;;5040339;28;20088;-70
2022/08/27 10:11:30;;;;;;;6.93;1.73;;;21.00;99.90;;;;;;5029468;28;20050;-70
2022/08/27 10:14:13;;;;;;;7.32;1.75;;;21.10;99.90;;;;;;5032096;28;20135;-70
2022/08/27 10:16:57;;;;;;;9.13;2.00;;;21.60;99.90;;;;;;5072222;28;20044;-70
2022/08/27 10:19:45;;;;;;;7.05;1.40;;;21.90;99.90;;;;;;5021003;28;20179;-70
2022/08/27 10:22:30;;;;;;;6.60;1.48;;;22.10;99.90;;;;;;5049392;28;20049;-71
2022/08/27 10:25:19;;;;;;;6.32;1.80;;;22.20;99.90;;;;;;5064604;28;20073;-70
2022/08/27 10:28:06;;;;;;;5.95;1.70;;;22.20;99.90;;;;;;5067571;28;20051;-71
2022/08/27 10:30:50;;;;;;;6.03;1.77;;;22.40;99.90;;;;;;5053273;28;20058;-69
2022/08/27 10:33:24;;;;;;;6.80;1.75;;;22.60;99.90;;;;;;5041317;28;20033;-69
2022/08/27 10:36:24;;;;;;;6.38;1.90;;;23.10;99.90;;;;;;5049237;28;20103;-70
2022/08/27 10:39:05;;;;;;;6.75;1.90;;;23.70;99.90;;;;;;5052556;28;20056;-69
2022/08/27 10:41:41;;;;;;;6.63;1.67;;;24.10;99.90;;;;;;5048772;28;20385;-69
2022/08/27 10:44:12;;;;;;;8.80;2.00;;;24.20;99.90;;;;;;5034434;28;20043;-70
2022/08/27 10:46:54;;;;;;;6.20;1.48;;;24.30;99.90;;;;;;5045651;28;20041;-69
2022/08/27 10:49:56;;;;;;;6.28;1.85;;;24.50;99.90;;;;;;5058339;28;20174;-70
2022/08/27 10:52:30;;;;;;;4.45;1.58;;;24.60;99.90;;;;;;5049508;28;20045;-70
2022/08/27 10:54:56;;;;;;;8.10;1.80;;;25.30;99.70;;;;;;5029214;28;20049;-70
2022/08/27 10:57:45;;;;;;;7.00;1.80;;;25.60;99.10;;;;;;5048149;28;20045;-70
2022/08/27 11:00:20;;;;;;;6.38;1.63;;;25.50;99.10;;;;;;5051613;28;20098;-71
2022/08/27 11:02:55;;;;;;;9.32;1.92;;;25.20;99.60;;;;;;5079345;28;20522;-70
2022/08/27 11:05:28;;;;;;;8.57;1.92;;;24.90;99.60;;;;;;5037902;28;20060;-71
2022/08/27 11:08:33;;;;;;;7.35;1.65;;;25.10;99.90;;;;;;5028727;28;20129;-71
2022/08/27 11:11:09;;;;;;;5.80;1.60;;;25.60;99.90;;;;;;5008422;28;20080;-71
2022/08/27 11:13:38;;;;;;;5.95;1.60;;;26.00;99.40;;;;;;5028438;28;20545;-71
2022/08/27 11:16:19;;;;;;;6.13;1.60;;;26.50;99.10;;;;;;5029068;28;20049;-71
2022/08/27 11:18:52;;;;;;;6.00;1.50;;;27.20;98.30;;;;;;5028174;28;20052;-70
2022/08/27 11:21:38;;;;;;;7.05;1.83;;;27.50;97.10;;;;;;5028299;28;20144;-70
2022/08/27 11:24:27;;;;;;;8.25;1.80;;;27.50;96.10;;;;;;5011356;28;20053;-70
2022/08/27 11:26:58;;;;;;;5.70;1.30;;;27.20;96.00;;;;;;5026740;28;20532;-70
2022/08/27 11:29:31;;;;;;;6.47;1.50;;;26.90;96.30;;;;;;5028883;28;20045;-71
2022/08/27 11:32:18;;;;;;;6.75;1.42;;;27.00;96.40;;;;;;5028043;28;20045;-70
2022/08/27 11:34:54;;;;;;;4.50;1.30;;;27.50;94.90;;;;;;5028709;28;20053;-70
2022/08/27 11:37:47;;;;;;;4.63;1.30;;;27.60;95.00;;;;;;5010963;28;20085;-70
2022/08/27 11:40:46;;;;;;;4.45;1.50;;;27.70;95.30;;;;;;5028486;28;20046;-71
2022/08/27 11:43:19;;;;;;;5.05;1.48;;;27.60;94.60;;;;;;5027601;28;20068;-71
2022/08/27 11:46:02;;;;;;;6.28;1.60;;;27.10;95.00;;;;;;5028400;28;20125;-71
2022/08/27 11:48:31;;;;;;;6.55;1.50;;;26.80;95.30;;;;;;5028785;28;20061;-70
2022/08/27 11:51:02;;;;;;;5.40;1.40;;;26.50;95.90;;;;;;5057253;28;20496;-71
2022/08/27 11:53:33;;;;;;;5.28;1.60;;;26.30;96.00;;;;;;5047644;28;20127;-70
2022/08/27 11:56:10;;;;;;;6.63;1.42;;;26.20;96.70;;;;;;5049483;28;20049;-71
2022/08/27 11:58:35;;;;;;;8.88;3.60;;;26.40;96.20;;;;;;5041165;28;20045;-71
2022/08/27 12:01:01;;;;;;;5.60;1.60;;;26.50;95.90;;;;;;5049106;28;20041;-71
2022/08/27 12:03:33;;;;;;;10.05;1.52;;;26.60;96.10;;;;;;5046841;28;20041;-71
2022/08/27 12:06:17;;;;;;;8.13;1.95;;;27.00;95.70;;;;;;5047179;28;20369;-71
2022/08/27 12:08:43;;;;;;;5.88;1.42;;;27.00;95.70;;;;;;5028698;28;20052;-71
2022/08/27 12:11:37;;;;;;;5.60;1.38;;;26.70;95.80;;;;;;5047507;28;20049;-71
2022/08/27 12:14:36;;;;;;;29.23;10.10;;;26.40;95.90;;;;;;5030230;28;20052;-71
2022/08/27 12:17:17;;;;;;;20.02;6.63;;;26.40;95.10;;;;;;5021595;28;20056;-72
2022/08/27 12:19:46;;;;;;;18.83;4.70;;;27.40;94.20;;;;;;5043103;28;20441;-71
2022/08/27 12:23:38;;;;;;;14.32;3.67;;;27.60;93.90;;;;;;5025275;28;20095;-71
2022/08/27 12:25:23;;;;;;;7.45;2.78;;;27.30;94.10;;;;;;5026852;28;20057;-72
2022/08/27 12:27:58;;;;;;;17.23;3.83;;;26.90;94.20;;;;;;5029432;28;20053;-71
2022/08/27 12:30:28;;;;;;;;;;;26.30;94.70;;;;;;5042018;28;20492;-71
2022/08/27 12:32:56;;;;;;;85.93;24.25;;;26.00;95.20;;;;;;5030111;28;20003;-71
2022/08/27 12:35:28;;;;;;;41.47;15.23;;;25.90;95.40;;;;;;5045140;28;20145;-71
2022/08/27 12:38:14;;;;;;;6.78;2.33;;;25.70;95.30;;;;;;5047525;28;20089;-70
2022/08/27 12:40:52;;;;;;;8.10;2.20;;;25.60;95.50;;;;;;5071215;28;20056;-71
2022/08/27 12:43:27;;;;;;;59.55;19.35;;;25.30;95.90;;;;;;5066322;28;20052;-70
2022/08/27 12:46:15;;;;;;;18.90;5.90;;;25.30;95.90;;;;;;5034661;28;20097;-71
2022/08/27 12:48:50;;;;;;;8.13;1.83;;;25.20;95.90;;;;;;5058235;28;20314;-71
2022/08/27 12:51:34;;;;;;;7.03;2.45;;;25.20;95.90;;;;;;5047610;28;20085;-71
2022/08/27 12:54:53;;;;;;;7.50;1.50;;;25.30;96.10;;;;;;5047037;28;20040;-71
2022/08/27 12:57:27;;;;;;;10.50;3.03;;;25.30;95.80;;;;;;4972609;28;20053;-71
2022/08/27 13:00:17;;;;;;;6.07;2.05;;;25.40;95.80;;;;;;4968615;28;20061;-71
2022/08/27 13:03:08;;;;;;;5.97;1.52;;;25.40;95.90;;;;;;5053832;28;20056;-72
2022/08/27 13:05:43;;;;;;;7.97;2.15;;;25.50;95.50;;;;;;5055667;28;20377;-72
2022/08/27 13:08:22;;;;;;;6.75;1.98;;;25.20;96.00;;;;;;5038443;28;20041;-72
2022/08/27 13:10:49;;;;;;;5.90;1.90;;;25.20;96.10;;;;;;5078649;28;20167;-72
2022/08/27 13:13:23;;;;;;;5.85;1.50;;;25.10;96.40;;;;;;5051791;28;20052;-73
2022/08/27 13:15:55;;;;;;;5.87;1.80;;;24.90;96.90;;;;;;5053879;28;20132;-72
2022/08/27 13:18:21;;;;;;;9.20;1.80;;;24.90;96.70;;;;;;5055385;28;20051;-72